Absarokee, Montana
Current Conditions -  °F | °C
As of 2:53 AM on Friday 21 Nov 2014 (Local Time) from KBIL Reporting Station
Few Clouds Few Clouds  
Wind Chill: -7°   Ceiling: Unl
Heat Index: -1°   Visibility: 10mi
Dew Point: -7°   Wind: 20mph
Humidity: 61%   Direction: 230°SW
Pressure: 29.82"   Gusts: NA
Location:  45.53°N, 109.43°W
Report Text: KBIL 210953Z 23017KT 10SM FEW210 M01/M07 A2982 RMK AO2 SLP118 T10061072 $
Loading
Personal Weather Stations






























Interactive Weather Map New forecast layout! Learn more

10-Day Weather Forecast

Advertisements
Track Severe Weather on mobile